Aeroporto :
LOGIN :

Iscrizione | Disclaimer

   EN    FR    IT 

 










Sommario :    VFR   VFR Marginale   IFR   IFR Intensivo   IFR Molto Intensivo
Visibilità : 
Base nubi : 
>= 8 km
>= 3000ft
5 / 8 km
1000 / 3000 ft
1500m / 5 km
500 / 1000 ft
800 / 1500m
200 / 500 ft
< 800m
< 200 ft
Simboli :   Temporali  Nebbia  Neve Forte  Precipitazioni Forti  Vento > 20 kt
SIGMETs :   Varie  Temporali  Ghiacco  Turbolenza  Onda orograficha  Ceneri Vulcaniche






- Altitudine del aeroporto : 1496 ft
- Codice IATA : SBZ


LRSB - Sibiu

ULTIMO METAR :
  • 251130Z 12004KT 080V160 CAVOK 14/M05 Q1009

METARs OBSOLETI :
  • 251100Z 13003KT 090V170 CAVOK 14/M04 Q1009
  • 251030Z 12004KT 060V180 CAVOK 13/M04 Q1010
  • 251000Z VRB03KT CAVOK 12/M05 Q1011
  • 250930Z VRB02KT CAVOK 10/M05 Q1011
  • 250900Z 32004KT 280V350 CAVOK 08/M05 Q1011

TAF TAF LRSB
Valido dal 25 a 12 ore il 26 a 12 ore UTC


251100Z 2512/2612 VRB04KT CAVOK



MetMap, La meteo Aeronautica in un colpo d'occhio ! - Copyright ORBIFLY Dicembre 2007 - Disclaimer

ORBIFLY MET'MAP TEAM :

Programmazione e sviluppo : Alexandra Zaïnal
Concezione : Baudouin d'Aumeries
Aiuto per la programmazione : Marc-Olivier Méhu
Supporto tecnico e logistico : Manuel Goepfert
Aiuto per la traduzione : Arnaldo La Scala

Contatto : metmap@orbifly.com




FONTI E CREDITI :

   NOAA